Terminal Aerodrome Forecast
Issued by NWS

Home | Current Version | Previous Version | Graphics & Text | Print | Product List | Glossary On
Versions: 1 2 3 4 5 6 7 8 9 10 11 12 13 14
000
FTUS41 KCLE 061138
TAFFDY
TAF
KFDY 061138Z 0612/0712 VRB03KT 3SM BR SCT250
     FM061330 23007KT P6SM SCT250
     FM070000 20007KT P6SM SKC
     FM070900 20009KT P6SM SCT100 BKN250=

USA.gov is the U.S. government's official web portal to all federal, state and local government web resources and services.